メインページ
METAR-TAF:

METAR-TAF

空港 :

メドウレイク, サスカチュワン州, カナダ

緯度: 54-08N, 経度: 108-31W, 海抜: 480m

現時点の気象観測

当レポートは39分前の17:00(UTC)に作成
変向風 2kt
気温 21°C
湿度 60%
気圧 1023 hPa
視程: 24.1km
高度3500ftの雲はほとんどない

METAR: CYLJ 211700Z VRB02KT 15SM FEW035 21/13 A3022 RMK CU1 CU TR SLP242 DENSITY ALT 2300FT

時間: 11:39 (17:39 UTC)


TAF: 見つかりません

4,000以上の空港の気象観測と天気予報(METAR報とTAF報)

利用可能な観測所は地図上に黄色い丸と赤い丸で示す。

丸の上にカーソルを重ねると観測所名を参照できる。

次にクリックすると気象観測と天気予報を参照できる。

マップの切り替え:黒色「×」印の緑ボタンをクリックして拡大、「-」印の緑ボタンをクリックして縮小、緑色の三角印をクリックして隣りの地図に切り替え


METAR-TAF: